sensor_id;sensor_type;location;lat;lon;timestamp;pressure;altitude;pressure_sealevel;temperature;humidity
62458;BME280;48509;52.122;5.250;2022-09-12T00:00:39;101746.0;;;15.18;93.37
62458;BME280;48509;52.122;5.250;2022-09-12T00:03:52;101745.0;;;15.15;93.54
62458;BME280;48509;52.122;5.250;2022-09-12T00:05:32;101746.0;;;15.1;93.9
62458;BME280;48509;52.122;5.250;2022-09-12T00:07:08;101748.0;;;15.17;93.61
62458;BME280;48509;52.122;5.250;2022-09-12T00:08:46;101748.0;;;15.1;93.96
62458;BME280;48509;52.122;5.250;2022-09-12T00:12:01;101745.0;;;15.07;94.27
62458;BME280;48509;52.122;5.250;2022-09-12T00:13:39;101743.0;;;15.06;94.17
62458;BME280;48509;52.122;5.250;2022-09-12T00:15:18;101739.0;;;15.07;94.0
62458;BME280;48509;52.122;5.250;2022-09-12T00:18:33;101744.0;;;15.05;93.91
62458;BME280;48509;52.122;5.250;2022-09-12T00:20:10;101741.0;;;15.05;94.15
62458;BME280;48509;52.122;5.250;2022-09-12T00:21:46;101734.0;;;15.14;93.43
62458;BME280;48509;52.122;5.250;2022-09-12T00:23:23;101736.0;;;15.05;94.88
62458;BME280;48509;52.122;5.250;2022-09-12T00:26:37;101740.0;;;15.16;94.12
62458;BME280;48509;52.122;5.250;2022-09-12T00:28:15;101734.0;;;15.17;93.52
62458;BME280;48509;52.122;5.250;2022-09-12T00:29:53;101734.0;;;15.15;93.51
62458;BME280;48509;52.122;5.250;2022-09-12T00:33:07;101730.0;;;15.18;93.25
62458;BME280;48509;52.122;5.250;2022-09-12T00:34:44;101730.0;;;15.09;93.51
62458;BME280;48509;52.122;5.250;2022-09-12T00:36:23;101730.0;;;15.08;93.27
62458;BME280;48509;52.122;5.250;2022-09-12T00:38:00;101726.0;;;15.06;93.62
62458;BME280;48509;52.122;5.250;2022-09-12T00:41:16;101720.0;;;15.11;93.75
62458;BME280;48509;52.122;5.250;2022-09-12T00:42:54;101721.0;;;15.01;93.88
62458;BME280;48509;52.122;5.250;2022-09-12T00:44:49;101721.0;;;15.02;93.71
62458;BME280;48509;52.122;5.250;2022-09-12T00:46:33;101726.0;;;15.07;93.6
62458;BME280;48509;52.122;5.250;2022-09-12T00:50:04;101723.0;;;15.0;93.78
62458;BME280;48509;52.122;5.250;2022-09-12T00:51:49;101718.0;;;14.96;93.87
62458;BME280;48509;52.122;5.250;2022-09-12T00:53:28;101722.0;;;14.94;94.38
62458;BME280;48509;52.122;5.250;2022-09-12T00:55:08;101720.0;;;14.94;93.95
62458;BME280;48509;52.122;5.250;2022-09-12T00:56:48;101710.0;;;14.99;93.78
62458;BME280;48509;52.122;5.250;2022-09-12T01:00:17;101716.0;;;14.91;93.66
62458;BME280;48509;52.122;5.250;2022-09-12T01:01:55;101713.0;;;14.91;93.8
62458;BME280;48509;52.122;5.250;2022-09-12T01:03:32;101712.0;;;14.91;93.98
62458;BME280;48509;52.122;5.250;2022-09-12T01:05:09;101712.0;;;14.88;94.81
62458;BME280;48509;52.122;5.250;2022-09-12T01:08:27;101714.0;;;14.92;94.38
62458;BME280;48509;52.122;5.250;2022-09-12T01:10:05;101710.0;;;14.92;94.03
62458;BME280;48509;52.122;5.250;2022-09-12T01:11:46;101711.0;;;14.92;93.35
62458;BME280;48509;52.122;5.250;2022-09-12T01:15:02;101708.0;;;14.91;93.41
62458;BME280;48509;52.122;5.250;2022-09-12T01:16:39;101701.0;;;14.94;93.28
62458;BME280;48509;52.122;5.250;2022-09-12T01:18:20;101707.0;;;14.89;93.92
62458;BME280;48509;52.122;5.250;2022-09-12T01:20:19;101703.0;;;14.9;93.31
62458;BME280;48509;52.122;5.250;2022-09-12T01:22:47;101705.0;;;14.89;93.83
62458;BME280;48509;52.122;5.250;2022-09-12T01:24:45;101705.0;;;14.88;93.86
62458;BME280;48509;52.122;5.250;2022-09-12T01:26:46;101699.0;;;14.92;93.49
62458;BME280;48509;52.122;5.250;2022-09-12T01:29:39;101695.0;;;14.94;93.45
62458;BME280;48509;52.122;5.250;2022-09-12T01:34:12;101687.0;;;14.92;93.77
62458;BME280;48509;52.122;5.250;2022-09-12T01:36:05;101684.0;;;15.02;93.21
62458;BME280;48509;52.122;5.250;2022-09-12T01:37:51;101681.0;;;15.06;93.21
62458;BME280;48509;52.122;5.250;2022-09-12T01:39:39;101680.0;;;14.96;93.45
62458;BME280;48509;52.122;5.250;2022-09-12T01:41:24;101676.0;;;14.98;93.22
62458;BME280;48509;52.122;5.250;2022-09-12T01:43:08;101680.0;;;15.0;93.1
62458;BME280;48509;52.122;5.250;2022-09-12T01:45:00;101674.0;;;14.91;93.18
62458;BME280;48509;52.122;5.250;2022-09-12T01:48:29;101674.0;;;14.99;93.18
62458;BME280;48509;52.122;5.250;2022-09-12T01:50:12;101674.0;;;14.87;93.1
62458;BME280;48509;52.122;5.250;2022-09-12T01:51:57;101678.0;;;14.82;93.43
62458;BME280;48509;52.122;5.250;2022-09-12T01:53:38;101675.0;;;14.77;93.82
62458;BME280;48509;52.122;5.250;2022-09-12T01:55:22;101673.0;;;14.76;94.31
62458;BME280;48509;52.122;5.250;2022-09-12T01:58:50;101670.0;;;14.8;93.69
62458;BME280;48509;52.122;5.250;2022-09-12T02:00:31;101660.0;;;14.86;92.98
62458;BME280;48509;52.122;5.250;2022-09-12T02:02:12;101659.0;;;14.81;93.35
62458;BME280;48509;52.122;5.250;2022-09-12T02:03:53;101661.0;;;14.77;93.26
62458;BME280;48509;52.122;5.250;2022-09-12T02:07:20;101655.0;;;14.77;93.35
62458;BME280;48509;52.122;5.250;2022-09-12T02:09:02;101659.0;;;14.74;93.24
62458;BME280;48509;52.122;5.250;2022-09-12T02:10:44;101655.0;;;14.7;93.7
62458;BME280;48509;52.122;5.250;2022-09-12T02:12:37;101655.0;;;14.75;93.93
62458;BME280;48509;52.122;5.250;2022-09-12T02:14:20;101655.0;;;14.74;93.39
62458;BME280;48509;52.122;5.250;2022-09-12T02:17:46;101653.0;;;14.66;93.69
62458;BME280;48509;52.122;5.250;2022-09-12T02:19:28;101652.0;;;14.71;93.07
62458;BME280;48509;52.122;5.250;2022-09-12T02:21:09;101651.0;;;14.61;93.47
62458;BME280;48509;52.122;5.250;2022-09-12T02:22:46;101647.0;;;14.67;93.08
62458;BME280;48509;52.122;5.250;2022-09-12T02:26:11;101645.0;;;14.68;92.99
62458;BME280;48509;52.122;5.250;2022-09-12T02:27:58;101649.0;;;14.63;93.75
62458;BME280;48509;52.122;5.250;2022-09-12T02:29:36;101646.0;;;14.6;93.76
62458;BME280;48509;52.122;5.250;2022-09-12T02:31:18;101645.0;;;14.59;93.84
62458;BME280;48509;52.122;5.250;2022-09-12T02:33:00;101645.0;;;14.58;93.58
62458;BME280;48509;52.122;5.250;2022-09-12T02:36:32;101639.0;;;14.61;93.39
62458;BME280;48509;52.122;5.250;2022-09-12T02:38:19;101641.0;;;14.59;94.14
62458;BME280;48509;52.122;5.250;2022-09-12T02:40:00;101639.0;;;14.63;93.77
62458;BME280;48509;52.122;5.250;2022-09-12T02:41:37;101636.0;;;14.61;93.7
62458;BME280;48509;52.122;5.250;2022-09-12T02:44:53;101639.0;;;14.55;94.35
62458;BME280;48509;52.122;5.250;2022-09-12T02:46:35;101633.0;;;14.6;93.76
62458;BME280;48509;52.122;5.250;2022-09-12T02:48:21;101631.0;;;14.76;93.35
62458;BME280;48509;52.122;5.250;2022-09-12T02:50:01;101624.0;;;14.67;93.4
62458;BME280;48509;52.122;5.250;2022-09-12T02:53:15;101627.0;;;14.67;93.3
62458;BME280;48509;52.122;5.250;2022-09-12T02:54:54;101626.0;;;14.61;93.33
62458;BME280;48509;52.122;5.250;2022-09-12T02:56:33;101624.0;;;14.5;94.21
62458;BME280;48509;52.122;5.250;2022-09-12T02:58:15;101618.0;;;14.6;94.01
62458;BME280;48509;52.122;5.250;2022-09-12T03:01:51;101627.0;;;14.53;94.17
62458;BME280;48509;52.122;5.250;2022-09-12T03:03:41;101620.0;;;14.59;93.58
62458;BME280;48509;52.122;5.250;2022-09-12T03:05:30;101617.0;;;14.58;93.46
62458;BME280;48509;52.122;5.250;2022-09-12T03:07:13;101617.0;;;14.5;94.01
62458;BME280;48509;52.122;5.250;2022-09-12T03:08:57;101620.0;;;14.53;93.87
62458;BME280;48509;52.122;5.250;2022-09-12T03:10:46;101619.0;;;14.54;93.93
62458;BME280;48509;52.122;5.250;2022-09-12T03:14:33;101616.0;;;14.56;93.88
62458;BME280;48509;52.122;5.250;2022-09-12T03:16:26;101615.0;;;14.52;94.41
62458;BME280;48509;52.122;5.250;2022-09-12T03:18:16;101617.0;;;14.47;94.85
62458;BME280;48509;52.122;5.250;2022-09-12T03:20:10;101615.0;;;14.51;94.26
62458;BME280;48509;52.122;5.250;2022-09-12T03:21:57;101613.0;;;14.5;94.04
62458;BME280;48509;52.122;5.250;2022-09-12T03:23:43;101618.0;;;14.44;94.09
62458;BME280;48509;52.122;5.250;2022-09-12T03:25:31;101615.0;;;14.54;93.89
62458;BME280;48509;52.122;5.250;2022-09-12T03:28:51;101614.0;;;14.47;94.5
62458;BME280;48509;52.122;5.250;2022-09-12T03:30:36;101612.0;;;14.5;94.51
62458;BME280;48509;52.122;5.250;2022-09-12T03:32:14;101613.0;;;14.46;94.37
62458;BME280;48509;52.122;5.250;2022-09-12T03:33:51;101612.0;;;14.45;94.37
62458;BME280;48509;52.122;5.250;2022-09-12T03:37:05;101602.0;;;14.5;94.16
62458;BME280;48509;52.122;5.250;2022-09-12T03:38:41;101603.0;;;14.47;93.83
62458;BME280;48509;52.122;5.250;2022-09-12T03:40:18;101608.0;;;14.46;94.49
62458;BME280;48509;52.122;5.250;2022-09-12T03:43:32;101602.0;;;14.58;93.87
62458;BME280;48509;52.122;5.250;2022-09-12T03:45:09;101599.0;;;14.53;94.25
62458;BME280;48509;52.122;5.250;2022-09-12T03:46:46;101594.0;;;14.51;94.52
62458;BME280;48509;52.122;5.250;2022-09-12T03:48:22;101591.0;;;14.52;94.5
62458;BME280;48509;52.122;5.250;2022-09-12T03:51:35;101586.0;;;14.51;94.07
62458;BME280;48509;52.122;5.250;2022-09-12T03:53:11;101585.0;;;14.5;94.13
62458;BME280;48509;52.122;5.250;2022-09-12T03:54:47;101585.0;;;14.51;94.22
62458;BME280;48509;52.122;5.250;2022-09-12T03:58:00;101583.0;;;14.46;94.16
62458;BME280;48509;52.122;5.250;2022-09-12T03:59:37;101586.0;;;14.45;94.43
62458;BME280;48509;52.122;5.250;2022-09-12T04:01:14;101587.0;;;14.46;94.29
62458;BME280;48509;52.122;5.250;2022-09-12T04:02:53;101587.0;;;14.5;93.96
62458;BME280;48509;52.122;5.250;2022-09-12T04:06:08;101581.0;;;14.52;94.28
62458;BME280;48509;52.122;5.250;2022-09-12T04:07:45;101580.0;;;14.5;94.22
62458;BME280;48509;52.122;5.250;2022-09-12T04:09:22;101582.0;;;14.54;94.2
62458;BME280;48509;52.122;5.250;2022-09-12T04:12:38;101581.0;;;14.59;94.27
62458;BME280;48509;52.122;5.250;2022-09-12T04:14:15;101580.0;;;14.62;93.89
62458;BME280;48509;52.122;5.250;2022-09-12T04:15:58;101582.0;;;14.67;93.75
62458;BME280;48509;52.122;5.250;2022-09-12T04:17:35;101582.0;;;14.62;93.83
62458;BME280;48509;52.122;5.250;2022-09-12T04:20:47;101581.0;;;14.62;94.19
62458;BME280;48509;52.122;5.250;2022-09-12T04:22:23;101580.0;;;14.59;93.92
62458;BME280;48509;52.122;5.250;2022-09-12T04:24:00;101581.0;;;14.63;93.93
62458;BME280;48509;52.122;5.250;2022-09-12T04:27:12;101575.0;;;14.6;93.88
62458;BME280;48509;52.122;5.250;2022-09-12T04:28:52;101577.0;;;14.62;93.72
62458;BME280;48509;52.122;5.250;2022-09-12T04:30:31;101581.0;;;14.6;93.88
62458;BME280;48509;52.122;5.250;2022-09-12T04:33:44;101580.0;;;14.61;94.64
62458;BME280;48509;52.122;5.250;2022-09-12T04:35:22;101582.0;;;14.62;94.15
62458;BME280;48509;52.122;5.250;2022-09-12T04:36:58;101582.0;;;14.58;94.14
62458;BME280;48509;52.122;5.250;2022-09-12T04:38:34;101581.0;;;14.57;94.2
62458;BME280;48509;52.122;5.250;2022-09-12T04:41:48;101583.0;;;14.57;94.62
62458;BME280;48509;52.122;5.250;2022-09-12T04:43:24;101583.0;;;14.69;94.29
62458;BME280;48509;52.122;5.250;2022-09-12T04:45:00;101581.0;;;14.63;94.72
62458;BME280;48509;52.122;5.250;2022-09-12T04:48:17;101577.0;;;14.73;94.46
62458;BME280;48509;52.122;5.250;2022-09-12T04:49:54;101580.0;;;14.65;95.06
62458;BME280;48509;52.122;5.250;2022-09-12T04:51:31;101577.0;;;14.7;94.86
62458;BME280;48509;52.122;5.250;2022-09-12T04:53:08;101583.0;;;14.69;95.54
62458;BME280;48509;52.122;5.250;2022-09-12T04:56:21;101582.0;;;14.69;96.03
62458;BME280;48509;52.122;5.250;2022-09-12T04:57:58;101581.0;;;14.77;95.3
62458;BME280;48509;52.122;5.250;2022-09-12T04:59:33;101580.0;;;14.83;94.76
62458;BME280;48509;52.122;5.250;2022-09-12T05:02:49;101578.0;;;14.89;93.73
62458;BME280;48509;52.122;5.250;2022-09-12T05:04:25;101575.0;;;14.82;94.8
62458;BME280;48509;52.122;5.250;2022-09-12T05:06:02;101568.0;;;14.89;94.55
62458;BME280;48509;52.122;5.250;2022-09-12T05:09:15;101569.0;;;14.85;94.83
62458;BME280;48509;52.122;5.250;2022-09-12T05:10:52;101563.0;;;14.88;94.94
62458;BME280;48509;52.122;5.250;2022-09-12T05:12:30;101568.0;;;14.93;94.38
62458;BME280;48509;52.122;5.250;2022-09-12T05:14:07;101566.0;;;14.93;94.42
62458;BME280;48509;52.122;5.250;2022-09-12T05:17:29;101576.0;;;14.91;94.37
62458;BME280;48509;52.122;5.250;2022-09-12T05:19:05;101577.0;;;14.88;94.35
62458;BME280;48509;52.122;5.250;2022-09-12T05:20:42;101577.0;;;14.85;94.76
62458;BME280;48509;52.122;5.250;2022-09-12T05:23:56;101575.0;;;14.86;94.71
62458;BME280;48509;52.122;5.250;2022-09-12T05:25:33;101568.0;;;14.86;95.0
62458;BME280;48509;52.122;5.250;2022-09-12T05:27:09;101564.0;;;14.87;94.69
62458;BME280;48509;52.122;5.250;2022-09-12T05:28:46;101565.0;;;14.88;94.61
62458;BME280;48509;52.122;5.250;2022-09-12T05:31:58;101566.0;;;14.91;94.82
62458;BME280;48509;52.122;5.250;2022-09-12T05:33:36;101565.0;;;14.92;95.18
62458;BME280;48509;52.122;5.250;2022-09-12T05:35:13;101569.0;;;14.93;95.14
62458;BME280;48509;52.122;5.250;2022-09-12T05:38:25;101569.0;;;14.92;95.36
62458;BME280;48509;52.122;5.250;2022-09-12T05:40:07;101565.0;;;14.94;95.23
62458;BME280;48509;52.122;5.250;2022-09-12T05:41:43;101565.0;;;14.94;95.13
62458;BME280;48509;52.122;5.250;2022-09-12T05:43:19;101563.0;;;14.91;95.93
62458;BME280;48509;52.122;5.250;2022-09-12T05:46:36;101563.0;;;14.94;96.0
62458;BME280;48509;52.122;5.250;2022-09-12T05:48:13;101562.0;;;14.92;95.76
62458;BME280;48509;52.122;5.250;2022-09-12T05:49:50;101558.0;;;14.93;95.28
62458;BME280;48509;52.122;5.250;2022-09-12T05:53:09;101559.0;;;14.97;95.52
62458;BME280;48509;52.122;5.250;2022-09-12T05:54:47;101559.0;;;15.09;94.64
62458;BME280;48509;52.122;5.250;2022-09-12T05:56:25;101561.0;;;15.1;94.12
62458;BME280;48509;52.122;5.250;2022-09-12T05:58:03;101555.0;;;15.05;95.01
62458;BME280;48509;52.122;5.250;2022-09-12T06:01:17;101555.0;;;14.98;95.15
62458;BME280;48509;52.122;5.250;2022-09-12T06:02:55;101555.0;;;15.06;94.47
62458;BME280;48509;52.122;5.250;2022-09-12T06:04:31;101557.0;;;15.17;93.65
62458;BME280;48509;52.122;5.250;2022-09-12T06:07:44;101559.0;;;15.27;93.53
62458;BME280;48509;52.122;5.250;2022-09-12T06:09:21;101560.0;;;15.13;94.43
62458;BME280;48509;52.122;5.250;2022-09-12T06:10:59;101563.0;;;15.08;95.8
62458;BME280;48509;52.122;5.250;2022-09-12T06:12:36;101561.0;;;15.16;95.29
62458;BME280;48509;52.122;5.250;2022-09-12T06:15:51;101564.0;;;15.11;95.84
62458;BME280;48509;52.122;5.250;2022-09-12T06:17:27;101565.0;;;15.1;95.44
62458;BME280;48509;52.122;5.250;2022-09-12T06:19:05;101570.0;;;15.12;95.33
62458;BME280;48509;52.122;5.250;2022-09-12T06:22:20;101572.0;;;15.13;94.68
62458;BME280;48509;52.122;5.250;2022-09-12T06:23:58;101569.0;;;15.16;95.02
62458;BME280;48509;52.122;5.250;2022-09-12T06:25:34;101565.0;;;15.06;95.42
62458;BME280;48509;52.122;5.250;2022-09-12T06:28:48;101570.0;;;15.12;95.19
62458;BME280;48509;52.122;5.250;2022-09-12T06:30:27;101572.0;;;15.16;94.98
62458;BME280;48509;52.122;5.250;2022-09-12T06:32:03;101575.0;;;15.14;95.1
62458;BME280;48509;52.122;5.250;2022-09-12T06:33:41;101569.0;;;15.17;95.31
62458;BME280;48509;52.122;5.250;2022-09-12T06:36:54;101561.0;;;15.21;95.96
62458;BME280;48509;52.122;5.250;2022-09-12T06:38:30;101558.0;;;15.3;95.17
62458;BME280;48509;52.122;5.250;2022-09-12T06:40:08;101555.0;;;15.36;94.98
62458;BME280;48509;52.122;5.250;2022-09-12T06:43:23;101556.0;;;15.33;95.69
62458;BME280;48509;52.122;5.250;2022-09-12T06:44:59;101553.0;;;15.41;95.11
62458;BME280;48509;52.122;5.250;2022-09-12T06:46:35;101550.0;;;15.58;94.65
62458;BME280;48509;52.122;5.250;2022-09-12T06:48:11;101547.0;;;15.6;94.92
62458;BME280;48509;52.122;5.250;2022-09-12T06:51:26;101553.0;;;15.67;95.03
62458;BME280;48509;52.122;5.250;2022-09-12T06:53:02;101552.0;;;15.74;95.06
62458;BME280;48509;52.122;5.250;2022-09-12T06:54:38;101551.0;;;15.68;95.83
62458;BME280;48509;52.122;5.250;2022-09-12T06:57:55;101547.0;;;15.89;95.01
62458;BME280;48509;52.122;5.250;2022-09-12T06:59:31;101550.0;;;15.96;94.68
62458;BME280;48509;52.122;5.250;2022-09-12T07:01:09;101553.0;;;16.06;94.17
62458;BME280;48509;52.122;5.250;2022-09-12T07:04:22;101547.0;;;16.13;94.23
62458;BME280;48509;52.122;5.250;2022-09-12T07:06:01;101540.0;;;16.28;94.13
62458;BME280;48509;52.122;5.250;2022-09-12T07:07:38;101544.0;;;16.34;93.98
62458;BME280;48509;52.122;5.250;2022-09-12T07:09:16;101547.0;;;16.41;93.51
62458;BME280;48509;52.122;5.250;2022-09-12T07:12:28;101543.0;;;16.52;93.02
62458;BME280;48509;52.122;5.250;2022-09-12T07:14:05;101540.0;;;16.62;92.86
62458;BME280;48509;52.122;5.250;2022-09-12T07:15:43;101546.0;;;16.65;92.98
62458;BME280;48509;52.122;5.250;2022-09-12T07:18:57;101549.0;;;16.68;93.13
62458;BME280;48509;52.122;5.250;2022-09-12T07:20:33;101548.0;;;16.68;93.45
62458;BME280;48509;52.122;5.250;2022-09-12T07:22:09;101549.0;;;16.79;93.18
62458;BME280;48509;52.122;5.250;2022-09-12T07:23:46;101550.0;;;16.84;92.87
62458;BME280;48509;52.122;5.250;2022-09-12T07:26:59;101551.0;;;16.98;92.18
62458;BME280;48509;52.122;5.250;2022-09-12T07:28:35;101551.0;;;17.09;91.26
62458;BME280;48509;52.122;5.250;2022-09-12T07:30:11;101549.0;;;17.12;90.95
62458;BME280;48509;52.122;5.250;2022-09-12T07:33:26;101549.0;;;17.25;90.87
62458;BME280;48509;52.122;5.250;2022-09-12T07:35:03;101549.0;;;17.34;90.66
62458;BME280;48509;52.122;5.250;2022-09-12T07:36:39;101551.0;;;17.36;90.54
62458;BME280;48509;52.122;5.250;2022-09-12T07:39:51;101555.0;;;17.39;90.06
62458;BME280;48509;52.122;5.250;2022-09-12T07:41:29;101555.0;;;17.48;89.96
62458;BME280;48509;52.122;5.250;2022-09-12T07:43:07;101553.0;;;17.57;89.27
62458;BME280;48509;52.122;5.250;2022-09-12T07:44:43;101553.0;;;17.61;89.44
62458;BME280;48509;52.122;5.250;2022-09-12T07:47:56;101550.0;;;17.71;88.91
62458;BME280;48509;52.122;5.250;2022-09-12T07:49:32;101552.0;;;17.78;88.52
62458;BME280;48509;52.122;5.250;2022-09-12T07:51:09;101546.0;;;17.81;88.64
62458;BME280;48509;52.122;5.250;2022-09-12T07:54:24;101550.0;;;17.86;88.62
62458;BME280;48509;52.122;5.250;2022-09-12T07:56:00;101555.0;;;17.97;88.23
62458;BME280;48509;52.122;5.250;2022-09-12T07:57:36;101557.0;;;17.97;88.88
62458;BME280;48509;52.122;5.250;2022-09-12T08:00:48;101559.0;;;18.11;87.62
62458;BME280;48509;52.122;5.250;2022-09-12T08:02:25;101563.0;;;18.12;87.3
62458;BME280;48509;52.122;5.250;2022-09-12T08:04:04;101563.0;;;18.22;87.39
62458;BME280;48509;52.122;5.250;2022-09-12T08:05:40;101559.0;;;18.27;86.55
62458;BME280;48509;52.122;5.250;2022-09-12T08:08:55;101555.0;;;18.34;86.0
62458;BME280;48509;52.122;5.250;2022-09-12T08:10:33;101557.0;;;18.38;86.57
62458;BME280;48509;52.122;5.250;2022-09-12T08:12:09;101557.0;;;18.41;87.12
62458;BME280;48509;52.122;5.250;2022-09-12T08:15:22;101551.0;;;18.48;87.01
62458;BME280;48509;52.122;5.250;2022-09-12T08:16:58;101550.0;;;18.55;85.95
62458;BME280;48509;52.122;5.250;2022-09-12T08:18:35;101556.0;;;18.59;84.51
62458;BME280;48509;52.122;5.250;2022-09-12T08:20:11;101558.0;;;18.68;84.2
62458;BME280;48509;52.122;5.250;2022-09-12T08:23:24;101553.0;;;18.81;84.33
62458;BME280;48509;52.122;5.250;2022-09-12T08:25:01;101552.0;;;18.88;84.59
62458;BME280;48509;52.122;5.250;2022-09-12T08:26:36;101552.0;;;18.98;84.32
62458;BME280;48509;52.122;5.250;2022-09-12T08:29:49;101552.0;;;19.04;83.82
62458;BME280;48509;52.122;5.250;2022-09-12T08:31:26;101557.0;;;19.12;84.18
62458;BME280;48509;52.122;5.250;2022-09-12T08:33:02;101557.0;;;19.25;83.57
62458;BME280;48509;52.122;5.250;2022-09-12T08:36:16;101555.0;;;19.28;82.8
62458;BME280;48509;52.122;5.250;2022-09-12T08:37:53;101551.0;;;19.41;81.34
62458;BME280;48509;52.122;5.250;2022-09-12T08:39:29;101552.0;;;19.5;80.99
62458;BME280;48509;52.122;5.250;2022-09-12T08:41:10;101551.0;;;19.55;80.87
62458;BME280;48509;52.122;5.250;2022-09-12T08:44:49;101553.0;;;19.64;80.94
62458;BME280;48509;52.122;5.250;2022-09-12T08:46:36;101552.0;;;19.7;79.88
62458;BME280;48509;52.122;5.250;2022-09-12T08:48:19;101555.0;;;19.72;80.36
62458;BME280;48509;52.122;5.250;2022-09-12T08:50:01;101552.0;;;19.81;80.27
62458;BME280;48509;52.122;5.250;2022-09-12T08:51:40;101551.0;;;19.93;80.52
62458;BME280;48509;52.122;5.250;2022-09-12T08:54:59;101549.0;;;19.91;80.73
62458;BME280;48509;52.122;5.250;2022-09-12T08:56:37;101546.0;;;19.88;79.16
62458;BME280;48509;52.122;5.250;2022-09-12T08:58:16;101544.0;;;20.0;79.52
62458;BME280;48509;52.122;5.250;2022-09-12T08:59:55;101538.0;;;20.07;78.37
62458;BME280;48509;52.122;5.250;2022-09-12T09:03:45;101542.0;;;20.21;77.84
62458;BME280;48509;52.122;5.250;2022-09-12T09:05:31;101538.0;;;20.3;77.41
62458;BME280;48509;52.122;5.250;2022-09-12T09:07:27;101537.0;;;20.31;77.86
62458;BME280;48509;52.122;5.250;2022-09-12T09:09:36;101540.0;;;20.45;77.36
62458;BME280;48509;52.122;5.250;2022-09-12T09:11:27;101543.0;;;20.51;76.66
62458;BME280;48509;52.122;5.250;2022-09-12T09:13:16;101537.0;;;20.52;76.19
62458;BME280;48509;52.122;5.250;2022-09-12T09:15:11;101535.0;;;20.5;74.91
62458;BME280;48509;52.122;5.250;2022-09-12T09:16:53;101534.0;;;20.59;74.98
62458;BME280;48509;52.122;5.250;2022-09-12T09:20:16;101536.0;;;20.63;75.61
62458;BME280;48509;52.122;5.250;2022-09-12T09:22:04;101534.0;;;20.68;74.69
62458;BME280;48509;52.122;5.250;2022-09-12T09:23:44;101537.0;;;20.76;74.58
62458;BME280;48509;52.122;5.250;2022-09-12T09:25:27;101533.0;;;20.81;74.28
62458;BME280;48509;52.122;5.250;2022-09-12T09:27:19;101531.0;;;20.89;74.63
62458;BME280;48509;52.122;5.250;2022-09-12T09:30:47;101535.0;;;20.87;74.16
62458;BME280;48509;52.122;5.250;2022-09-12T09:32:27;101535.0;;;20.82;74.31
62458;BME280;48509;52.122;5.250;2022-09-12T09:34:12;101537.0;;;20.79;74.09
62458;BME280;48509;52.122;5.250;2022-09-12T09:35:55;101531.0;;;20.88;73.97
62458;BME280;48509;52.122;5.250;2022-09-12T09:37:38;101535.0;;;20.95;73.83
62458;BME280;48509;52.122;5.250;2022-09-12T09:41:31;101532.0;;;20.88;73.19
62458;BME280;48509;52.122;5.250;2022-09-12T09:43:19;101531.0;;;21.02;74.05
62458;BME280;48509;52.122;5.250;2022-09-12T09:44:58;101531.0;;;21.14;74.58
62458;BME280;48509;52.122;5.250;2022-09-12T09:46:37;101530.0;;;21.28;74.47
62458;BME280;48509;52.122;5.250;2022-09-12T09:48:16;101523.0;;;21.34;74.25
62458;BME280;48509;52.122;5.250;2022-09-12T09:51:34;101522.0;;;21.42;73.83
62458;BME280;48509;52.122;5.250;2022-09-12T09:53:23;101523.0;;;21.41;73.41
62458;BME280;48509;52.122;5.250;2022-09-12T09:55:14;101519.0;;;21.49;72.8
62458;BME280;48509;52.122;5.250;2022-09-12T09:56:52;101518.0;;;21.44;72.22
62458;BME280;48509;52.122;5.250;2022-09-12T10:00:40;101513.0;;;21.48;73.23
62458;BME280;48509;52.122;5.250;2022-09-12T10:02:20;101509.0;;;21.54;73.08
62458;BME280;48509;52.122;5.250;2022-09-12T10:03:56;101511.0;;;21.59;73.33
62458;BME280;48509;52.122;5.250;2022-09-12T10:05:43;101508.0;;;21.57;70.45
62458;BME280;48509;52.122;5.250;2022-09-12T10:07:21;101507.0;;;21.61;71.2
62458;BME280;48509;52.122;5.250;2022-09-12T10:09:18;101500.0;;;21.69;70.28
62458;BME280;48509;52.122;5.250;2022-09-12T10:12:34;101499.0;;;21.71;70.55
62458;BME280;48509;52.122;5.250;2022-09-12T10:14:34;101505.0;;;21.8;71.86
62458;BME280;48509;52.122;5.250;2022-09-12T10:16:19;101497.0;;;21.88;70.14
62458;BME280;48509;52.122;5.250;2022-09-12T10:17:57;101495.0;;;21.95;71.33
62458;BME280;48509;52.122;5.250;2022-09-12T10:19:36;101490.0;;;22.04;69.5
62458;BME280;48509;52.122;5.250;2022-09-12T10:22:57;101491.0;;;22.0;69.05
62458;BME280;48509;52.122;5.250;2022-09-12T10:24:36;101490.0;;;21.99;67.97
62458;BME280;48509;52.122;5.250;2022-09-12T10:26:17;101488.0;;;22.09;67.25
62458;BME280;48509;52.122;5.250;2022-09-12T10:27:57;101484.0;;;22.2;67.98
62458;BME280;48509;52.122;5.250;2022-09-12T10:31:23;101480.0;;;22.23;66.99
62458;BME280;48509;52.122;5.250;2022-09-12T10:33:05;101477.0;;;22.32;66.35
62458;BME280;48509;52.122;5.250;2022-09-12T10:34:44;101476.0;;;22.3;66.75
62458;BME280;48509;52.122;5.250;2022-09-12T10:36:21;101471.0;;;22.28;67.2
62458;BME280;48509;52.122;5.250;2022-09-12T10:39:38;101473.0;;;22.28;66.35
62458;BME280;48509;52.122;5.250;2022-09-12T10:41:13;101473.0;;;22.36;67.11
62458;BME280;48509;52.122;5.250;2022-09-12T10:42:52;101467.0;;;22.3;66.84
62458;BME280;48509;52.122;5.250;2022-09-12T10:46:28;101469.0;;;22.45;65.91
62458;BME280;48509;52.122;5.250;2022-09-12T10:48:23;101464.0;;;22.45;64.7
62458;BME280;48509;52.122;5.250;2022-09-12T10:50:19;101458.0;;;22.42;64.75
62458;BME280;48509;52.122;5.250;2022-09-12T10:51:57;101450.0;;;22.54;64.66
62458;BME280;48509;52.122;5.250;2022-09-12T10:53:51;101455.0;;;22.59;64.66
62458;BME280;48509;52.122;5.250;2022-09-12T10:55:33;101455.0;;;22.62;63.52
62458;BME280;48509;52.122;5.250;2022-09-12T10:57:22;101449.0;;;22.66;64.11
62458;BME280;48509;52.122;5.250;2022-09-12T11:01:06;101446.0;;;22.66;63.8
62458;BME280;48509;52.122;5.250;2022-09-12T11:02:50;101439.0;;;22.76;65.03
62458;BME280;48509;52.122;5.250;2022-09-12T11:04:43;101444.0;;;22.81;65.89
62458;BME280;48509;52.122;5.250;2022-09-12T11:06:32;101442.0;;;22.86;63.58
62458;BME280;48509;52.122;5.250;2022-09-12T11:08:32;101449.0;;;22.98;64.56